Time;durP1;ratioP1;P1;durP2;ratioP2;P2;SDS_P1;SDS_P2;PMS_P1;PMS_P2;Temp;Humidity;BMP_temperature;BMP_pressure;BME280_temperature;BME280_humidity;BME280_pressure;Samples;Min_cycle;Max_cycle;Signal;HPM_P1;HPM_P2
2024/02/12 00:01:45;;;;;;;0.90;0.50;;;5.90;99.90;;;;;;4852713;29;20050;-79
2024/02/12 00:04:14;;;;;;;0.85;0.55;;;5.90;99.90;;;;;;4840081;29;20518;-79
2024/02/12 00:06:43;;;;;;;0.50;0.40;;;5.90;99.90;;;;;;4834428;29;20586;-79
2024/02/12 00:09:12;;;;;;;0.47;0.45;;;5.90;99.90;;;;;;4848698;29;20094;-79
2024/02/12 00:11:42;;;;;;;1.80;0.60;;;5.90;99.90;;;;;;4850728;29;20288;-79
2024/02/12 00:14:09;;;;;;;0.32;0.32;;;5.80;99.90;;;;;;4849504;29;20054;-78
2024/02/12 00:16:38;;;;;;;0.40;0.40;;;5.90;99.90;;;;;;4850473;29;20053;-79
2024/02/12 00:19:08;;;;;;;0.82;0.50;;;5.80;99.90;;;;;;4849095;29;20069;-79
2024/02/12 00:21:36;;;;;;;0.40;0.40;;;5.80;99.90;;;;;;4850400;29;21064;-79
2024/02/12 00:24:03;;;;;;;0.57;0.40;;;5.80;99.90;;;;;;4847273;29;20060;-78
2024/02/12 00:26:32;;;;;;;0.52;0.47;;;5.80;99.90;;;;;;4849087;29;20057;-77
2024/02/12 00:29:00;;;;;;;0.40;0.40;;;5.80;99.90;;;;;;4850052;29;20057;-80
2024/02/12 00:31:27;;;;;;;0.50;0.50;;;5.80;99.90;;;;;;4850273;29;20496;-80
2024/02/12 00:33:54;;;;;;;0.65;0.45;;;5.90;99.90;;;;;;4832916;29;20153;-80
2024/02/12 00:36:23;;;;;;;1.38;0.60;;;5.80;99.90;;;;;;4848452;29;20057;-79
2024/02/12 00:38:50;;;;;;;0.50;0.50;;;5.80;99.90;;;;;;4848570;29;20148;-81
2024/02/12 00:41:20;;;;;;;0.77;0.50;;;5.80;99.90;;;;;;4849990;29;20148;-79
2024/02/12 00:43:49;;;;;;;0.38;0.38;;;5.80;99.90;;;;;;4863680;29;20097;-80
2024/02/12 00:46:17;;;;;;;0.35;0.35;;;5.80;99.90;;;;;;4832514;29;20069;-80
2024/02/12 00:48:45;;;;;;;0.65;0.45;;;5.80;99.90;;;;;;4838310;29;20056;-80
2024/02/12 00:51:15;;;;;;;0.55;0.43;;;5.80;1.00;;;;;;4849091;29;20057;-80
2024/02/12 00:53:45;;;;;;;0.40;0.40;;;5.80;1.00;;;;;;4847603;29;20057;-80
2024/02/12 00:56:15;;;;;;;0.75;0.52;;;5.80;1.00;;;;;;4855323;29;20628;-80
2024/02/12 00:58:45;;;;;;;0.30;0.22;;;5.80;99.90;;;;;;4851594;29;20401;-79
2024/02/12 01:01:13;;;;;;;0.40;0.40;;;5.80;1.00;;;;;;4868530;29;20148;-80
2024/02/12 01:03:41;;;;;;;0.93;0.50;;;5.80;1.00;;;;;;4847853;29;20144;-81
2024/02/12 01:06:08;;;;;;;0.40;0.40;;;5.80;1.00;;;;;;4849025;29;20057;-80
2024/02/12 01:08:38;;;;;;;0.63;0.35;;;5.80;1.00;;;;;;4855430;29;20076;-80
2024/02/12 01:11:07;;;;;;;0.40;0.40;;;5.80;1.00;;;;;;4867102;29;20087;-80
2024/02/12 01:13:34;;;;;;;0.77;0.38;;;5.70;1.00;;;;;;4863991;29;20052;-81
2024/02/12 01:16:01;;;;;;;0.30;0.30;;;5.70;1.00;;;;;;4849491;29;20050;-79
2024/02/12 01:18:28;;;;;;;0.38;0.38;;;5.70;1.00;;;;;;4848050;29;20061;-81
2024/02/12 01:20:55;;;;;;;0.40;0.40;;;5.70;1.00;;;;;;4848552;29;20057;-80
2024/02/12 01:23:22;;;;;;;0.32;0.30;;;5.70;99.90;;;;;;4847137;29;20838;-80
2024/02/12 01:25:51;;;;;;;0.63;0.47;;;5.60;99.90;;;;;;4849939;29;20046;-80
2024/02/12 01:28:19;;;;;;;0.65;0.10;;;5.60;99.90;;;;;;4848143;29;20051;-80
2024/02/12 01:30:47;;;;;;;0.88;0.40;;;5.60;99.90;;;;;;4849227;29;20061;-80
2024/02/12 01:33:16;;;;;;;0.85;0.45;;;5.50;99.90;;;;;;4848945;29;20064;-80
2024/02/12 01:35:43;;;;;;;0.43;0.43;;;5.50;99.90;;;;;;4847574;29;20088;-80
2024/02/12 01:38:11;;;;;;;0.30;0.30;;;5.50;99.90;;;;;;4831061;29;20722;-80
2024/02/12 01:40:39;;;;;;;0.30;0.30;;;5.50;1.00;;;;;;4849421;29;20591;-80
2024/02/12 01:43:06;;;;;;;0.68;0.55;;;5.40;1.00;;;;;;4848386;29;20045;-80
2024/02/12 01:45:33;;;;;;;0.20;0.20;;;5.40;1.00;;;;;;4848807;29;20053;-80
2024/02/12 01:48:02;;;;;;;0.60;0.40;;;5.40;1.00;;;;;;4832173;29;20136;-80
2024/02/12 01:50:31;;;;;;;0.40;0.40;;;5.30;1.00;;;;;;4848338;29;20056;-80
2024/02/12 01:52:59;;;;;;;0.30;0.30;;;5.30;1.00;;;;;;4846494;29;20050;-81
2024/02/12 01:55:28;;;;;;;0.50;0.50;;;5.30;1.00;;;;;;4832544;29;20144;-80
2024/02/12 01:57:55;;;;;;;0.35;0.35;;;5.30;38.50;;;;;;4848593;29;20057;-77
2024/02/12 02:00:23;;;;;;;0.63;0.40;;;5.30;54.50;;;;;;4849183;29;20057;-80
2024/02/12 02:02:50;;;;;;;0.30;0.30;;;5.30;22.00;;;;;;4848941;29;20409;-80
2024/02/12 02:05:17;;;;;;;0.40;0.40;;;5.30;1.00;;;;;;4832205;29;20145;-80
2024/02/12 02:07:47;;;;;;;0.20;0.20;;;5.40;1.00;;;;;;4847304;29;20083;-80
2024/02/12 02:10:14;;;;;;;0.22;0.22;;;5.30;1.00;;;;;;4849232;29;20097;-80
2024/02/12 02:12:42;;;;;;;0.60;0.22;;;5.30;1.00;;;;;;4848550;29;20085;-80
2024/02/12 02:15:09;;;;;;;1.60;0.60;;;5.40;1.00;;;;;;4848822;29;20129;-80
2024/02/12 02:17:36;;;;;;;0.40;0.40;;;5.40;1.00;;;;;;4847367;29;20065;-80
2024/02/12 02:20:07;;;;;;;0.50;0.50;;;5.30;1.00;;;;;;4832028;29;20061;-77
2024/02/12 02:22:34;;;;;;;1.23;0.45;;;5.30;1.00;;;;;;4846057;29;20085;-80
2024/02/12 02:25:01;;;;;;;0.35;0.30;;;5.30;1.00;;;;;;4846827;29;20065;-79
2024/02/12 02:27:28;;;;;;;0.20;0.20;;;5.30;1.00;;;;;;4849079;29;20045;-80
2024/02/12 02:29:55;;;;;;;0.43;0.43;;;5.30;1.00;;;;;;4848462;29;20053;-80
2024/02/12 02:32:22;;;;;;;0.40;0.40;;;5.30;1.00;;;;;;4850844;29;20842;-80
2024/02/12 02:34:50;;;;;;;0.50;0.50;;;5.30;1.00;;;;;;4851074;29;20128;-80
2024/02/12 02:37:18;;;;;;;0.45;0.40;;;5.30;1.00;;;;;;4850954;29;20894;-80
2024/02/12 02:39:45;;;;;;;0.70;0.50;;;5.30;1.00;;;;;;4835885;29;20145;-80
2024/02/12 02:42:13;;;;;;;0.40;0.40;;;5.30;99.90;;;;;;4860433;29;20056;-80
2024/02/12 02:44:39;;;;;;;0.30;0.30;;;5.30;99.90;;;;;;4854662;29;20077;-80
2024/02/12 02:47:10;;;;;;;0.40;0.40;;;5.30;99.90;;;;;;4851219;29;20148;-80
2024/02/12 02:49:38;;;;;;;0.80;0.65;;;5.30;99.90;;;;;;4855287;29;20055;-80
2024/02/12 02:52:05;;;;;;;0.57;0.43;;;5.20;99.90;;;;;;4853756;29;20069;-80
2024/02/12 02:54:33;;;;;;;0.43;0.30;;;5.20;99.90;;;;;;4854867;29;20060;-80
2024/02/12 02:57:00;;;;;;;0.25;0.25;;;5.10;99.90;;;;;;4854123;29;20393;-80
2024/02/12 02:59:27;;;;;;;0.65;0.40;;;5.10;99.90;;;;;;4855141;29;20484;-80
2024/02/12 03:01:55;;;;;;;0.55;0.30;;;5.10;99.90;;;;;;4855342;29;20050;-80
2024/02/12 03:04:22;;;;;;;0.40;0.40;;;5.00;99.90;;;;;;4838496;29;20057;-80
2024/02/12 03:06:50;;;;;;;0.30;0.30;;;5.00;99.90;;;;;;4855051;29;20189;-80
2024/02/12 03:09:16;;;;;;;0.40;0.40;;;4.90;99.90;;;;;;4853632;29;20466;-80
2024/02/12 03:11:45;;;;;;;0.40;0.40;;;4.80;99.90;;;;;;4855103;29;20671;-79
2024/02/12 03:14:12;;;;;;;0.30;0.30;;;4.80;99.90;;;;;;4853630;29;20053;-79
2024/02/12 03:16:39;;;;;;;0.40;0.40;;;4.80;1.00;;;;;;4853652;29;20050;-79
2024/02/12 03:19:06;;;;;;;0.35;0.35;;;4.80;99.90;;;;;;4855025;29;20057;-79
2024/02/12 03:21:33;;;;;;;0.30;0.30;;;4.80;38.50;;;;;;4854701;29;20054;-80
2024/02/12 03:24:00;;;;;;;0.32;0.32;;;4.70;99.90;;;;;;4852983;29;20071;-80
2024/02/12 03:26:27;;;;;;;0.25;0.25;;;4.70;99.90;;;;;;4855186;29;20089;-79
2024/02/12 03:28:54;;;;;;;0.30;0.30;;;4.70;99.90;;;;;;4838027;29;20049;-79
2024/02/12 03:31:21;;;;;;;0.30;0.30;;;4.70;99.90;;;;;;4854813;29;20110;-80
2024/02/12 03:33:49;;;;;;;0.30;0.30;;;4.60;99.90;;;;;;4852656;29;20057;-79
2024/02/12 03:36:17;;;;;;;0.30;0.30;;;4.60;99.90;;;;;;4853673;29;20092;-79
2024/02/12 03:38:44;;;;;;;0.57;0.40;;;4.60;99.90;;;;;;4852666;29;20057;-80
2024/02/12 03:41:24;;;;;;;0.30;0.30;;;4.60;99.90;;;;;;4856121;29;20109;-80
2024/02/12 03:43:55;;;;;;;0.30;0.30;;;4.60;99.90;;;;;;4863304;29;20106;-80
2024/02/12 03:46:28;;;;;;;0.57;0.47;;;4.50;99.90;;;;;;4854870;29;20057;-79
2024/02/12 03:59:57;;;;;;;0.25;0.25;;;4.50;99.90;;;;;;4869609;29;20065;-80
2024/02/12 04:02:27;;;;;;;0.30;0.30;;;4.40;99.90;;;;;;4872616;29;20057;-79
2024/02/12 04:04:54;;;;;;;0.20;0.20;;;4.40;99.90;;;;;;4858417;29;20186;-79
2024/02/12 04:07:24;;;;;;;0.30;0.30;;;4.40;79.00;;;;;;4853083;29;20089;-79
2024/02/12 04:09:51;;;;;;;0.50;0.50;;;4.40;70.00;;;;;;4837750;29;20045;-80
2024/02/12 04:12:18;;;;;;;0.57;0.30;;;4.40;52.40;;;;;;4866976;29;20056;-79
2024/02/12 04:14:45;;;;;;;0.63;0.40;;;4.30;1.20;;;;;;4857956;29;20049;-79
2024/02/12 04:17:15;;;;;;;0.50;0.50;;;4.40;1.00;;;;;;4852130;29;20090;-79
2024/02/12 04:19:42;;;;;;;1.30;0.50;;;4.30;1.00;;;;;;4852426;29;20472;-79
2024/02/12 04:22:10;;;;;;;0.75;0.40;;;4.30;1.00;;;;;;4851716;29;20061;-80
2024/02/12 04:24:40;;;;;;;0.80;0.50;;;4.30;1.00;;;;;;4853761;29;20045;-80
2024/02/12 04:27:08;;;;;;;0.40;0.40;;;4.30;1.00;;;;;;4852406;29;20050;-79
2024/02/12 04:29:37;;;;;;;1.00;0.60;;;4.30;1.00;;;;;;4854189;29;20061;-79
2024/02/12 04:32:11;;;;;;;0.43;0.43;;;4.20;1.00;;;;;;4852399;29;20057;-80
2024/02/12 04:34:40;;;;;;;0.40;0.40;;;4.20;18.20;;;;;;4852261;29;20061;-80
2024/02/12 04:37:09;;;;;;;0.65;0.35;;;4.20;83.60;;;;;;4850756;29;20053;-79
2024/02/12 04:39:36;;;;;;;0.43;0.40;;;4.20;99.90;;;;;;4847661;29;20149;-79
2024/02/12 04:42:03;;;;;;;0.30;0.30;;;4.10;99.90;;;;;;4861725;29;20057;-80
2024/02/12 04:44:30;;;;;;;0.43;0.40;;;4.20;99.90;;;;;;4852004;29;20057;-79
2024/02/12 04:47:00;;;;;;;0.40;0.40;;;4.10;99.90;;;;;;4853423;29;20179;-80
2024/02/12 04:49:27;;;;;;;0.30;0.30;;;4.10;99.90;;;;;;4852131;29;20737;-79
2024/02/12 04:51:55;;;;;;;0.30;0.30;;;4.10;99.90;;;;;;4851806;29;20053;-79
2024/02/12 04:54:23;;;;;;;0.30;0.30;;;4.10;99.90;;;;;;4851086;29;20054;-80
2024/02/12 04:56:50;;;;;;;0.50;0.40;;;4.00;99.90;;;;;;4849012;29;20064;-79
2024/02/12 04:59:18;;;;;;;0.30;0.30;;;4.00;99.90;;;;;;4833250;29;20078;-80
2024/02/12 05:01:45;;;;;;;0.73;0.50;;;4.00;99.90;;;;;;4833620;29;20066;-79
2024/02/12 05:04:12;;;;;;;0.40;0.40;;;4.00;99.90;;;;;;4844744;29;20556;-79
2024/02/12 05:06:39;;;;;;;0.20;0.20;;;4.00;99.90;;;;;;4833229;29;20136;-79
2024/02/12 05:09:10;;;;;;;0.43;0.40;;;4.00;99.90;;;;;;4833559;29;20066;-79
2024/02/12 05:11:37;;;;;;;0.30;0.30;;;4.00;99.90;;;;;;4869444;29;20108;-79
2024/02/12 05:14:05;;;;;;;1.00;0.30;;;4.10;1.00;;;;;;4863549;29;20084;-79
2024/02/12 05:16:34;;;;;;;0.63;0.40;;;4.10;99.90;;;;;;4867591;29;20528;-79
2024/02/12 05:24:34;;;;;;;1.35;0.40;;;4.20;99.90;;;;;;4843849;29;20061;-77
2024/02/12 05:27:02;;;;;;;0.28;0.28;;;4.10;99.90;;;;;;4851380;29;20053;-79
2024/02/12 05:29:29;;;;;;;1.20;0.47;;;4.20;99.90;;;;;;4851942;29;20054;-78
2024/02/12 05:31:56;;;;;;;0.43;0.30;;;4.10;99.90;;;;;;4848806;29;20469;-79
2024/02/12 05:34:23;;;;;;;0.50;0.47;;;4.10;99.90;;;;;;4836397;29;20148;-78
2024/02/12 05:36:51;;;;;;;0.40;0.40;;;4.10;99.90;;;;;;4842825;29;20411;-79
2024/02/12 05:39:19;;;;;;;0.30;0.30;;;4.10;99.90;;;;;;4855890;29;20065;-79
2024/02/12 05:41:46;;;;;;;0.40;0.40;;;4.10;99.90;;;;;;4855984;29;20116;-80
2024/02/12 05:44:14;;;;;;;0.38;0.30;;;4.10;99.90;;;;;;4858939;29;20053;-80
2024/02/12 05:46:40;;;;;;;0.75;0.55;;;4.10;99.90;;;;;;4849894;29;20110;-80
2024/02/12 05:49:09;;;;;;;0.40;0.40;;;4.10;99.90;;;;;;4851583;29;20057;-80
2024/02/12 05:51:37;;;;;;;0.40;0.40;;;4.10;99.90;;;;;;4848715;29;20303;-80
2024/02/12 05:54:04;;;;;;;0.35;0.35;;;4.10;99.90;;;;;;4852959;29;20054;-79
2024/02/12 05:56:31;;;;;;;0.30;0.30;;;4.10;99.90;;;;;;4851925;29;20042;-79
2024/02/12 05:58:58;;;;;;;0.52;0.40;;;4.20;99.90;;;;;;4851133;29;20153;-79
2024/02/12 06:01:25;;;;;;;0.40;0.30;;;4.20;99.90;;;;;;4854496;29;20049;-79
2024/02/12 06:03:52;;;;;;;0.15;0.15;;;4.20;99.90;;;;;;4829426;29;20053;-79
2024/02/12 06:06:19;;;;;;;0.30;0.30;;;4.20;99.90;;;;;;4848487;29;20422;-77
2024/02/12 06:08:46;;;;;;;0.47;0.40;;;4.20;1.00;;;;;;4832994;29;20401;-79
2024/02/12 06:11:13;;;;;;;0.30;0.30;;;4.30;1.00;;;;;;4849771;29;20062;-77
2024/02/12 06:13:40;;;;;;;0.30;0.30;;;4.30;1.00;;;;;;4849030;29;20084;-78
2024/02/12 06:16:07;;;;;;;0.50;0.50;;;4.40;1.00;;;;;;4848557;29;20457;-78
2024/02/12 06:18:34;;;;;;;0.40;0.40;;;4.40;99.90;;;;;;4847108;29;20065;-78
2024/02/12 06:21:01;;;;;;;0.63;0.50;;;4.50;99.90;;;;;;4847816;29;20045;-78
2024/02/12 06:23:27;;;;;;;0.40;0.40;;;4.50;99.90;;;;;;4848021;29;20129;-79
2024/02/12 06:25:54;;;;;;;0.38;0.38;;;4.60;99.90;;;;;;4852443;29;20580;-78
2024/02/12 06:28:22;;;;;;;0.40;0.40;;;4.70;99.90;;;;;;4851167;29;20148;-79
2024/02/12 06:30:49;;;;;;;0.82;0.47;;;4.70;99.90;;;;;;4838853;29;20057;-79
2024/02/12 06:33:16;;;;;;;0.60;0.50;;;4.80;99.90;;;;;;4857146;29;20185;-79
2024/02/12 06:35:43;;;;;;;0.30;0.30;;;4.90;99.90;;;;;;4854323;29;20064;-77
2024/02/12 06:38:10;;;;;;;0.40;0.38;;;4.90;12.50;;;;;;4848127;29;20050;-78
2024/02/12 06:40:37;;;;;;;0.30;0.30;;;4.90;1.00;;;;;;4854043;29;20540;-78
2024/02/12 06:43:04;;;;;;;0.65;0.30;;;5.00;1.00;;;;;;4852009;29;20049;-78
2024/02/12 06:45:32;;;;;;;0.40;0.40;;;5.00;99.90;;;;;;4851895;29;20045;-78
2024/02/12 06:48:00;;;;;;;0.40;0.32;;;5.10;99.90;;;;;;4856944;29;20144;-78
2024/02/12 06:50:27;;;;;;;0.88;0.65;;;5.10;99.90;;;;;;4869650;29;20409;-78
2024/02/12 06:52:54;;;;;;;0.30;0.30;;;5.10;99.90;;;;;;4858663;29;20084;-77
2024/02/12 06:55:21;;;;;;;0.30;0.30;;;5.20;99.90;;;;;;4857950;29;20076;-77
2024/02/12 06:57:48;;;;;;;0.20;0.20;;;5.20;99.90;;;;;;4847354;29;20420;-78
2024/02/12 07:00:20;;;;;;;0.35;0.30;;;5.20;99.90;;;;;;4870482;29;20069;-77
2024/02/12 07:02:47;;;;;;;0.63;0.38;;;5.30;99.90;;;;;;4849690;29;20257;-78
2024/02/12 07:05:17;;;;;;;0.50;0.40;;;5.40;99.90;;;;;;4865272;29;20064;-76
2024/02/12 07:07:48;;;;;;;0.55;0.38;;;5.40;87.10;;;;;;4852711;29;20050;-76
2024/02/12 07:10:15;;;;;;;0.30;0.30;;;5.50;20.10;;;;;;4857611;29;20049;-76
2024/02/12 07:12:42;;;;;;;0.90;0.40;;;5.50;1.00;;;;;;4859729;29;20073;-76
2024/02/12 07:15:10;;;;;;;0.30;0.30;;;5.60;1.00;;;;;;4862743;29;20048;-77
2024/02/12 07:17:37;;;;;;;0.40;0.40;;;5.60;99.90;;;;;;4868246;29;20513;-76
2024/02/12 07:20:08;;;;;;;0.38;0.30;;;5.70;99.90;;;;;;4869609;29;20539;-76
2024/02/12 07:22:36;;;;;;;0.75;0.52;;;5.70;99.90;;;;;;4862259;29;20061;-75
2024/02/12 07:25:04;;;;;;;1.23;0.77;;;5.70;99.90;;;;;;4850635;29;20927;-76
2024/02/12 07:27:31;;;;;;;0.40;0.40;;;5.80;99.90;;;;;;4851222;29;20540;-76
2024/02/12 07:29:58;;;;;;;0.90;0.40;;;5.80;99.90;;;;;;4850085;29;20050;-76
2024/02/12 07:32:25;;;;;;;0.57;0.50;;;5.80;43.20;;;;;;4849080;29;20053;-78
2024/02/12 07:34:52;;;;;;;0.40;0.40;;;5.80;1.00;;;;;;4832802;29;20084;-75
2024/02/12 07:37:19;;;;;;;0.47;0.47;;;5.80;1.00;;;;;;4848218;29;20181;-76
2024/02/12 07:39:46;;;;;;;0.95;0.50;;;5.80;1.00;;;;;;4850867;29;20057;-76
2024/02/12 07:42:13;;;;;;;0.45;0.40;;;5.80;1.00;;;;;;4848942;29;20085;-76
2024/02/12 07:44:41;;;;;;;0.30;0.30;;;5.70;1.00;;;;;;4850560;29;20054;-76
2024/02/12 07:47:10;;;;;;;0.70;0.50;;;5.80;1.00;;;;;;4849395;29;20053;-76
2024/02/12 07:49:37;;;;;;;0.40;0.40;;;5.70;1.00;;;;;;4851141;29;20056;-76
2024/02/12 07:52:04;;;;;;;0.52;0.52;;;5.70;1.00;;;;;;4847830;29;20152;-76
2024/02/12 07:54:34;;;;;;;0.43;0.43;;;5.70;1.00;;;;;;4850359;29;20056;-77
2024/02/12 07:57:01;;;;;;;0.73;0.40;;;5.70;1.00;;;;;;4849179;29;20141;-76
2024/02/12 07:59:28;;;;;;;0.30;0.30;;;5.70;1.00;;;;;;4850069;29;20673;-76
2024/02/12 08:01:55;;;;;;;0.30;0.30;;;5.70;1.00;;;;;;4849240;29;20057;-76
2024/02/12 08:04:22;;;;;;;0.90;0.50;;;5.70;1.00;;;;;;4850088;29;20090;-76
2024/02/12 08:06:49;;;;;;;0.32;0.30;;;5.70;1.00;;;;;;4848919;29;20533;-76
2024/02/12 08:09:17;;;;;;;0.73;0.40;;;5.80;99.90;;;;;;4832371;29;20070;-75
2024/02/12 08:11:45;;;;;;;0.50;0.50;;;5.80;99.90;;;;;;4843058;29;20762;-77
2024/02/12 08:14:12;;;;;;;0.40;0.40;;;5.80;99.90;;;;;;4848440;29;20066;-76
2024/02/12 08:16:43;;;;;;;0.70;0.65;;;5.80;99.90;;;;;;4850432;29;20545;-76
2024/02/12 08:19:11;;;;;;;0.47;0.47;;;5.80;99.90;;;;;;4849913;29;20082;-76
2024/02/12 08:21:39;;;;;;;1.08;0.40;;;5.80;99.90;;;;;;4850096;29;20049;-75
2024/02/12 08:24:06;;;;;;;0.82;0.40;;;5.80;99.90;;;;;;4845481;29;20053;-77
2024/02/12 08:26:32;;;;;;;0.30;0.30;;;5.80;99.90;;;;;;4833300;29;20058;-78
2024/02/12 08:28:59;;;;;;;1.00;0.50;;;5.80;99.90;;;;;;4848184;29;20045;-77
2024/02/12 08:31:27;;;;;;;0.50;0.50;;;5.90;99.90;;;;;;4848322;29;20137;-77
2024/02/12 08:33:56;;;;;;;0.50;0.50;;;5.90;99.90;;;;;;4849142;29;20050;-77
2024/02/12 08:36:24;;;;;;;0.50;0.50;;;6.00;99.90;;;;;;4848964;29;20081;-78
2024/02/12 08:38:51;;;;;;;0.68;0.60;;;6.00;99.90;;;;;;4848508;29;20136;-78
2024/02/12 08:41:22;;;;;;;0.80;0.60;;;6.00;99.90;;;;;;4857881;29;20048;-78
2024/02/12 08:43:51;;;;;;;2.10;0.60;;;6.00;99.90;;;;;;4855028;29;20053;-77
2024/02/12 08:46:18;;;;;;;0.60;0.40;;;6.00;99.90;;;;;;4852740;29;20061;-79
2024/02/12 08:48:45;;;;;;;1.05;0.60;;;6.00;99.90;;;;;;4830745;29;20046;-78
2024/02/12 08:51:14;;;;;;;0.98;0.40;;;6.00;99.90;;;;;;4828835;29;20053;-79
2024/02/12 08:53:44;;;;;;;1.58;0.77;;;6.00;99.90;;;;;;4851099;29;20053;-78
2024/02/12 08:56:17;;;;;;;0.73;0.57;;;5.90;99.90;;;;;;4852521;29;20057;-78
2024/02/12 08:58:45;;;;;;;0.57;0.50;;;5.90;99.90;;;;;;4836864;29;20061;-78
2024/02/12 09:01:13;;;;;;;0.30;0.30;;;6.00;99.90;;;;;;4832246;29;20064;-79
2024/02/12 09:03:42;;;;;;;0.45;0.43;;;6.00;99.90;;;;;;4835152;29;20352;-79
2024/02/12 09:06:13;;;;;;;1.25;0.45;;;6.00;99.90;;;;;;4844967;29;20045;-78
2024/02/12 09:08:45;;;;;;;0.40;0.40;;;6.00;99.90;;;;;;4844283;29;20548;-78
2024/02/12 09:11:12;;;;;;;1.15;0.70;;;6.00;99.90;;;;;;4864329;29;20493;-78
2024/02/12 09:13:40;;;;;;;0.50;0.50;;;6.10;99.90;;;;;;4850810;29;20053;-78
2024/02/12 09:16:10;;;;;;;0.70;0.50;;;6.00;99.90;;;;;;4848585;29;20122;-78
2024/02/12 09:18:40;;;;;;;0.60;0.57;;;6.10;99.90;;;;;;4847600;29;20053;-78
2024/02/12 09:21:07;;;;;;;2.47;0.88;;;6.10;99.90;;;;;;4851708;29;20305;-79
2024/02/12 09:23:33;;;;;;;1.38;0.82;;;6.10;99.90;;;;;;4852192;29;20053;-79
2024/02/12 09:26:01;;;;;;;1.17;0.70;;;6.10;99.90;;;;;;4830943;29;20052;-78
2024/02/12 09:28:27;;;;;;;0.75;0.55;;;6.20;99.90;;;;;;4854230;29;20096;-78
2024/02/12 09:30:57;;;;;;;1.15;0.93;;;6.20;99.90;;;;;;4845353;29;20109;-79
2024/02/12 09:33:24;;;;;;;0.60;0.60;;;6.30;99.90;;;;;;4843115;29;20060;-76
2024/02/12 09:35:52;;;;;;;2.70;0.70;;;6.30;99.90;;;;;;4828906;29;20057;-77
2024/02/12 09:38:19;;;;;;;1.33;0.68;;;6.30;99.90;;;;;;4844284;29;20095;-79
2024/02/12 09:40:46;;;;;;;1.75;0.80;;;6.30;99.90;;;;;;4850984;29;20135;-78
2024/02/12 09:43:13;;;;;;;0.88;0.73;;;6.40;99.90;;;;;;4848312;29;20063;-78
2024/02/12 09:45:44;;;;;;;0.60;0.60;;;6.40;99.90;;;;;;4848572;29;20421;-77
2024/02/12 09:48:14;;;;;;;0.75;0.60;;;6.50;99.90;;;;;;4847338;29;20605;-78
2024/02/12 09:50:45;;;;;;;1.48;0.90;;;6.60;99.90;;;;;;4832623;29;20081;-78
2024/02/12 09:53:13;;;;;;;0.57;0.57;;;6.60;99.90;;;;;;4832017;29;20122;-78
2024/02/12 09:55:40;;;;;;;1.20;0.75;;;6.70;99.90;;;;;;4847332;29;20117;-78
2024/02/12 09:58:07;;;;;;;1.10;0.75;;;6.70;99.90;;;;;;4852575;29;20060;-78
2024/02/12 10:00:35;;;;;;;0.88;0.60;;;6.70;99.90;;;;;;4851469;29;20102;-78
2024/02/12 10:03:03;;;;;;;3.72;0.80;;;6.80;99.90;;;;;;4851663;29;20053;-79
2024/02/12 10:05:30;;;;;;;1.25;0.85;;;6.80;99.90;;;;;;4836093;29;20421;-80
2024/02/12 10:08:01;;;;;;;2.03;0.98;;;6.80;99.90;;;;;;4850065;29;20059;-79
2024/02/12 10:10:30;;;;;;;0.90;0.50;;;6.80;99.90;;;;;;4851378;29;20053;-77
2024/02/12 10:12:57;;;;;;;0.90;0.75;;;6.90;99.90;;;;;;4850669;29;20065;-79
2024/02/12 10:15:24;;;;;;;1.50;0.93;;;7.00;99.90;;;;;;4851913;29;20059;-78
2024/02/12 10:17:54;;;;;;;1.13;0.80;;;7.00;99.90;;;;;;4865217;29;20144;-76
2024/02/12 10:20:22;;;;;;;1.15;0.82;;;7.00;99.90;;;;;;4871259;29;20227;-77
2024/02/12 10:22:49;;;;;;;1.88;0.90;;;7.00;99.90;;;;;;4865673;29;20552;-78
2024/02/12 10:25:19;;;;;;;2.17;1.10;;;7.10;99.90;;;;;;4849935;29;20153;-78
2024/02/12 10:27:46;;;;;;;3.20;1.00;;;7.10;99.90;;;;;;4850337;29;20057;-78
2024/02/12 10:30:15;;;;;;;0.60;0.60;;;7.20;99.90;;;;;;4849179;29;20468;-79
2024/02/12 10:32:46;;;;;;;1.95;1.00;;;7.30;99.90;;;;;;4834677;29;20091;-78
2024/02/12 10:35:14;;;;;;;1.70;1.27;;;7.30;99.90;;;;;;4849259;29;20068;-77
2024/02/12 10:37:43;;;;;;;1.08;0.70;;;7.40;99.90;;;;;;4831704;29;20080;-78
2024/02/12 10:40:14;;;;;;;0.85;0.60;;;7.50;99.90;;;;;;4841768;29;20609;-78
2024/02/12 10:42:49;;;;;;;1.25;0.88;;;7.50;99.90;;;;;;4850041;29;20064;-78
2024/02/12 10:45:17;;;;;;;1.27;0.73;;;7.60;90.90;;;;;;4849763;29;20053;-79
2024/02/12 10:47:45;;;;;;;1.35;0.85;;;7.60;92.20;;;;;;4850634;29;20117;-80
2024/02/12 10:50:13;;;;;;;0.93;0.70;;;7.60;99.90;;;;;;4850247;29;20061;-79
2024/02/12 10:52:41;;;;;;;0.75;0.60;;;7.70;84.80;;;;;;4849084;29;20531;-79
2024/02/12 10:55:09;;;;;;;1.42;0.95;;;7.70;70.10;;;;;;4833663;29;20653;-80
2024/02/12 10:57:38;;;;;;;3.22;0.70;;;7.70;63.60;;;;;;4850962;29;20144;-80
2024/02/12 11:00:05;;;;;;;1.52;0.95;;;7.80;65.30;;;;;;4834797;29;20061;-80
2024/02/12 11:02:45;;;;;;;1.73;0.90;;;7.80;60.90;;;;;;4851614;29;20059;-78
2024/02/12 11:05:12;;;;;;;1.02;0.77;;;7.90;55.30;;;;;;4844652;29;20081;-80
2024/02/12 11:07:39;;;;;;;1.50;0.73;;;7.90;62.10;;;;;;4833376;29;20262;-80
2024/02/12 11:10:06;;;;;;;1.55;0.85;;;7.90;50.40;;;;;;4851062;29;20409;-80
2024/02/12 11:12:34;;;;;;;0.80;0.68;;;7.90;57.30;;;;;;4867970;29;20108;-81
2024/02/12 11:15:10;;;;;;;1.10;0.90;;;8.00;44.10;;;;;;4849946;29;20049;-80
2024/02/12 11:17:36;;;;;;;1.10;0.90;;;8.00;45.80;;;;;;4850413;29;20564;-79
2024/02/12 11:20:25;;;;;;;0.60;0.60;;;8.00;44.90;;;;;;4852827;29;20049;-80
2024/02/12 11:22:54;;;;;;;0.80;0.63;;;8.00;39.60;;;;;;4852353;29;20099;-80
2024/02/12 11:25:22;;;;;;;0.80;0.60;;;8.10;43.00;;;;;;4848326;29;20102;-80
2024/02/12 11:27:53;;;;;;;1.00;0.70;;;8.20;44.20;;;;;;4850399;29;20057;-80
2024/02/12 11:30:20;;;;;;;1.27;0.60;;;8.30;39.40;;;;;;4850684;29;20103;-79
2024/02/12 11:32:47;;;;;;;1.35;0.95;;;8.30;30.00;;;;;;4849086;29;20088;-80
2024/02/12 11:35:18;;;;;;;1.55;0.60;;;8.40;25.30;;;;;;4833941;29;20057;-79
2024/02/12 11:37:46;;;;;;;0.73;0.60;;;8.40;28.50;;;;;;4852367;29;20057;-80
2024/02/12 11:40:18;;;;;;;0.60;0.60;;;8.50;30.20;;;;;;4867639;29;20092;-81
2024/02/12 11:42:51;;;;;;;0.50;0.40;;;8.60;26.20;;;;;;4869352;29;20049;-80
2024/02/12 11:45:22;;;;;;;0.77;0.50;;;8.60;17.80;;;;;;4849479;29;20061;-80
2024/02/12 11:47:50;;;;;;;0.88;0.70;;;8.70;15.00;;;;;;4850155;29;20057;-80
2024/02/12 11:50:24;;;;;;;1.08;0.50;;;8.80;12.10;;;;;;4852540;29;20053;-79
2024/02/12 11:52:52;;;;;;;1.23;0.60;;;8.80;10.50;;;;;;4851214;29;20406;-79
2024/02/12 11:55:19;;;;;;;2.33;0.70;;;8.90;3.60;;;;;;4859748;29;20136;-78
2024/02/12 11:57:49;;;;;;;0.63;0.60;;;9.00;7.90;;;;;;4871259;29;20120;-79
2024/02/12 12:00:19;;;;;;;0.75;0.63;;;9.20;6.20;;;;;;4871009;29;20067;-79
2024/02/12 12:02:47;;;;;;;0.90;0.70;;;9.30;1.00;;;;;;4863165;29;20517;-79
2024/02/12 12:05:26;;;;;;;0.77;0.60;;;9.30;1.00;;;;;;4852589;29;20057;-79
2024/02/12 12:07:53;;;;;;;1.38;0.80;;;9.40;7.80;;;;;;4850459;29;20060;-80
2024/02/12 12:10:28;;;;;;;1.05;0.68;;;9.50;5.10;;;;;;4852902;29;20560;-79
2024/02/12 12:12:59;;;;;;;0.57;0.57;;;9.70;10.40;;;;;;4836531;29;20050;-79
2024/02/12 12:15:28;;;;;;;0.50;0.50;;;9.80;1.00;;;;;;4852027;29;20476;-80
2024/02/12 12:17:58;;;;;;;1.20;0.82;;;9.80;1.30;;;;;;4851645;29;20053;-80
2024/02/12 12:20:29;;;;;;;0.60;0.60;;;10.00;1.00;;;;;;4850709;29;20057;-80
2024/02/12 12:22:57;;;;;;;1.08;0.60;;;10.00;1.70;;;;;;4847688;29;20057;-80
2024/02/12 12:25:26;;;;;;;1.27;0.80;;;10.20;3.00;;;;;;4847673;29;20058;-80
2024/02/12 12:27:53;;;;;;;0.93;0.52;;;10.40;25.80;;;;;;4850269;29;20109;-80
2024/02/12 12:30:20;;;;;;;1.17;0.77;;;10.60;78.00;;;;;;4851717;29;20243;-79
2024/02/12 12:32:48;;;;;;;1.45;0.88;;;10.50;95.10;;;;;;4851296;29;20053;-80
2024/02/12 12:35:18;;;;;;;0.90;0.70;;;10.60;91.20;;;;;;4851301;29;20351;-80
2024/02/12 12:37:45;;;;;;;0.65;0.50;;;10.80;75.70;;;;;;4852181;29;20082;-80
2024/02/12 12:40:18;;;;;;;0.60;0.60;;;10.80;99.90;;;;;;4856165;29;20061;-80
2024/02/12 12:42:49;;;;;;;1.10;0.80;;;10.90;99.90;;;;;;4869972;29;20082;-80
2024/02/12 12:45:17;;;;;;;0.88;0.80;;;11.00;69.90;;;;;;4848841;29;20133;-80
2024/02/12 12:47:44;;;;;;;1.23;0.68;;;11.00;92.10;;;;;;4848714;29;20056;-80
2024/02/12 12:50:13;;;;;;;0.65;0.63;;;11.10;94.20;;;;;;4835850;29;20240;-80
2024/02/12 12:52:41;;;;;;;0.98;0.80;;;11.40;99.90;;;;;;4851159;29;20053;-80
2024/02/12 12:55:11;;;;;;;0.90;0.70;;;11.60;99.90;;;;;;4837814;29;20061;-80
2024/02/12 12:57:42;;;;;;;0.90;0.60;;;11.70;99.90;;;;;;4833298;29;20156;-80
2024/02/12 13:00:18;;;;;;;1.08;0.70;;;11.60;99.90;;;;;;4848052;29;20055;-80
2024/02/12 13:02:46;;;;;;;0.57;0.57;;;11.40;99.90;;;;;;4837200;29;20569;-80
2024/02/12 13:05:13;;;;;;;1.52;0.70;;;11.40;99.90;;;;;;4835613;29;20060;-79
2024/02/12 13:07:41;;;;;;;1.10;0.80;;;11.50;99.90;;;;;;4850073;29;20075;-80
2024/02/12 13:10:29;;;;;;;1.60;0.60;;;11.70;99.90;;;;;;4845269;29;20085;-79
2024/02/12 13:13:00;;;;;;;0.55;0.50;;;12.00;99.90;;;;;;4869654;29;20077;-80
2024/02/12 13:15:26;;;;;;;1.75;0.85;;;12.30;99.90;;;;;;4850822;29;20552;-80
2024/02/12 13:17:54;;;;;;;0.65;0.57;;;12.40;99.90;;;;;;4852700;29;20065;-80
2024/02/12 13:20:21;;;;;;;0.90;0.50;;;12.60;99.90;;;;;;4836236;29;20062;-80